createdAt,value
2022-12-26T00:01:54.353Z,98873.27
2022-12-26T00:04:50.107Z,98864.07
2022-12-26T00:07:10.657Z,98858.93
2022-12-26T00:09:38.511Z,98846.96
2022-12-26T00:12:06.542Z,98844.23
2022-12-26T00:14:34.383Z,98826.59
2022-12-26T00:17:02.199Z,98831.55
2022-12-26T00:19:30.029Z,98838.59
2022-12-26T00:21:57.988Z,98842.14
2022-12-26T00:24:25.834Z,98844.54
2022-12-26T00:26:53.662Z,98851.45
2022-12-26T00:29:22.874Z,98846.86
2022-12-26T00:31:50.894Z,98863.11
2022-12-26T00:34:18.824Z,98872.23
2022-12-26T00:36:46.677Z,98871.50
2022-12-26T00:39:14.532Z,98878.16
2022-12-26T00:41:42.360Z,98881.88
2022-12-26T00:44:10.138Z,98875.76
2022-12-26T00:46:38.004Z,98867.77
2022-12-26T00:49:05.909Z,98869.03
2022-12-26T00:51:33.855Z,98870.77
2022-12-26T00:54:01.670Z,98859.34
2022-12-26T00:56:30.291Z,98863.94
2022-12-26T00:58:58.181Z,98857.98
2022-12-26T01:01:26.157Z,98862.63
2022-12-26T01:03:54.142Z,98868.71
2022-12-26T01:06:22.072Z,98870.63
2022-12-26T01:08:49.995Z,98876.30
2022-12-26T01:11:40.383Z,98877.36
2022-12-26T01:14:13.849Z,98876.80
2022-12-26T01:16:43.430Z,98875.46
2022-12-26T01:19:12.942Z,98876.60
2022-12-26T01:21:43.033Z,98872.33
2022-12-26T01:24:11.001Z,98873.73
2022-12-26T01:26:38.788Z,98872.52
2022-12-26T01:29:06.732Z,98872.31
2022-12-26T01:31:34.682Z,98865.91
2022-12-26T01:34:02.585Z,98853.83
2022-12-26T01:36:30.459Z,98848.08
2022-12-26T01:38:58.291Z,98850.23
2022-12-26T01:41:26.799Z,98858.80
2022-12-26T01:44:04.066Z,98865.45
2022-12-26T01:46:35.799Z,98874.37
2022-12-26T01:49:21.375Z,98873.36
2022-12-26T01:51:54.451Z,98859.87
2022-12-26T01:54:40.248Z,98842.58
2022-12-26T01:57:16.552Z,98843.66
2022-12-26T01:59:46.731Z,98833.91
2022-12-26T02:02:16.059Z,98824.02
2022-12-26T02:05:06.920Z,98825.13
2022-12-26T02:07:38.171Z,98842.80
2022-12-26T02:10:15.254Z,98848.71
2022-12-26T02:12:43.668Z,98843.84
2022-12-26T02:15:15.565Z,98845.22
2022-12-26T02:17:44.625Z,98848.17
2022-12-26T02:20:29.830Z,98844.28
2022-12-26T02:23:31.033Z,98837.26
2022-12-26T02:26:37.244Z,98832.46
2022-12-26T02:29:23.102Z,98824.95
2022-12-26T02:32:29.519Z,98823.41
2022-12-26T02:35:12.444Z,98825.76
2022-12-26T02:38:15.577Z,98827.19
2022-12-26T02:40:50.978Z,98821.08
2022-12-26T02:43:22.132Z,98814.44
2022-12-26T02:46:19.836Z,98811.08
2022-12-26T02:48:58.384Z,98813.21
2022-12-26T02:52:15.669Z,98806.77
2022-12-26T02:55:23.801Z,98794.52
2022-12-26T02:58:20.713Z,98785.79
2022-12-26T03:01:11.047Z,98777.10
2022-12-26T03:03:59.408Z,98782.26
2022-12-26T03:06:52.051Z,98781.16
2022-12-26T03:09:51.633Z,98787.61
2022-12-26T03:12:56.798Z,98794.38
2022-12-26T03:15:29.671Z,98810.73
2022-12-26T03:18:02.909Z,98811.11
2022-12-26T03:20:35.952Z,98806.02
2022-12-26T03:23:08.747Z,98801.39
2022-12-26T03:26:07.567Z,98801.19
2022-12-26T03:28:35.612Z,98797.77
2022-12-26T03:31:07.691Z,98790.59
2022-12-26T03:33:58.378Z,98795.38
2022-12-26T03:36:41.549Z,98800.27
2022-12-26T03:39:43.735Z,98799.21
2022-12-26T03:42:40.710Z,98798.98
2022-12-26T03:45:52.089Z,98799.30
2022-12-26T03:48:48.462Z,98797.73
2022-12-26T03:51:44.201Z,98798.23
2022-12-26T03:54:36.220Z,98799.79
2022-12-26T03:57:31.183Z,98797.48
2022-12-26T04:00:30.193Z,98798.69
2022-12-26T04:03:24.342Z,98792.04
2022-12-26T04:06:11.702Z,98792.04
2022-12-26T04:09:25.603Z,98793.65
2022-12-26T04:12:14.545Z,98803.45
2022-12-26T04:15:04.679Z,98797.58
2022-12-26T04:18:10.992Z,98798.00
2022-12-26T04:21:04.595Z,98792.65
2022-12-26T04:24:05.225Z,98794.00
2022-12-26T04:27:07.932Z,98788.98
2022-12-26T04:29:54.704Z,98780.30
2022-12-26T04:33:21.640Z,98774.70
2022-12-26T04:36:14.032Z,98777.41
2022-12-26T04:39:06.747Z,98783.27
2022-12-26T04:41:54.475Z,98780.25
2022-12-26T04:44:24.487Z,98783.52
2022-12-26T04:46:54.196Z,98777.54
2022-12-26T04:49:41.067Z,98782.13
2022-12-26T04:52:15.006Z,98782.05
2022-12-26T04:54:43.408Z,98778.00
2022-12-26T04:57:11.531Z,98780.59
2022-12-26T04:59:39.480Z,98779.17
2022-12-26T05:02:27.702Z,98781.42
2022-12-26T05:05:14.004Z,98777.22
2022-12-26T05:08:00.382Z,98778.80
2022-12-26T05:10:29.402Z,98779.08
2022-12-26T05:12:57.262Z,98780.20
2022-12-26T05:15:25.270Z,98777.26
2022-12-26T05:18:11.696Z,98774.78
2022-12-26T05:20:58.807Z,98778.61
2022-12-26T05:23:46.883Z,98784.27
2022-12-26T05:26:37.320Z,98788.45
2022-12-26T05:29:05.276Z,98779.69
2022-12-26T05:31:36.464Z,98778.45
2022-12-26T05:34:06.564Z,98773.21
2022-12-26T05:36:39.298Z,98781.73
2022-12-26T05:39:08.627Z,98785.89
2022-12-26T05:41:37.381Z,98789.86
2022-12-26T05:44:05.592Z,98785.71
2022-12-26T05:46:34.441Z,98785.97
2022-12-26T05:49:02.619Z,98787.73
2022-12-26T05:51:30.749Z,98785.09
2022-12-26T05:53:58.644Z,98788.60
2022-12-26T05:56:26.733Z,98794.36
2022-12-26T05:58:56.490Z,98799.05
2022-12-26T06:01:25.783Z,98793.79
2022-12-26T06:03:56.519Z,98793.13
2022-12-26T06:06:25.762Z,98789.20
2022-12-26T06:08:55.460Z,98791.40
2022-12-26T06:11:26.555Z,98802.38
2022-12-26T06:13:55.878Z,98800.70
2022-12-26T06:16:24.301Z,98797.50
2022-12-26T06:18:53.981Z,98797.13
2022-12-26T06:21:24.522Z,98797.52
2022-12-26T06:23:52.415Z,98803.44
2022-12-26T06:26:20.267Z,98808.33
2022-12-26T06:28:48.183Z,98807.15
2022-12-26T06:31:20.926Z,98813.63
2022-12-26T06:33:56.030Z,98809.54
2022-12-26T06:36:26.244Z,98815.30
2022-12-26T06:38:55.301Z,98818.63
2022-12-26T06:41:25.071Z,98819.80
2022-12-26T06:43:53.704Z,98818.11
2022-12-26T06:46:24.365Z,98817.97
2022-12-26T06:48:53.206Z,98821.38
2022-12-26T06:51:24.001Z,98823.36
2022-12-26T06:53:53.171Z,98817.56
2022-12-26T06:56:24.588Z,98826.84
2022-12-26T06:58:54.748Z,98822.70
2022-12-26T07:01:23.755Z,98822.42
2022-12-26T07:03:53.463Z,98826.71
2022-12-26T07:06:33.497Z,98822.34
2022-12-26T07:09:05.046Z,98819.38
2022-12-26T07:11:36.426Z,98822.16
2022-12-26T07:14:05.095Z,98821.67
2022-12-26T07:16:37.614Z,98820.92
2022-12-26T07:19:06.424Z,98817.68
2022-12-26T07:21:40.014Z,98812.36
2022-12-26T07:24:20.049Z,98821.33
2022-12-26T07:26:49.891Z,98820.49
2022-12-26T07:29:18.441Z,98816.73
2022-12-26T07:31:46.402Z,98805.73
2022-12-26T07:34:14.923Z,98809.38
2022-12-26T07:36:42.751Z,98813.89
2022-12-26T07:39:14.134Z,98820.30
2022-12-26T07:42:00.389Z,98819.71
2022-12-26T07:44:31.074Z,98820.89
2022-12-26T07:47:00.181Z,98818.36
2022-12-26T07:49:28.240Z,98816.30
2022-12-26T07:51:56.199Z,98815.33
2022-12-26T07:54:24.042Z,98824.20
2022-12-26T07:56:51.899Z,98822.05
2022-12-26T07:59:19.756Z,98819.88
2022-12-26T08:01:47.940Z,98818.69
2022-12-26T08:04:16.021Z,98813.59
2022-12-26T08:06:46.072Z,98809.53
2022-12-26T08:09:17.723Z,98813.77
2022-12-26T08:11:45.728Z,98823.00
2022-12-26T08:14:16.773Z,98824.79
2022-12-26T08:16:51.191Z,98832.09
2022-12-26T08:19:21.029Z,98830.73
2022-12-26T08:21:48.877Z,98828.42
2022-12-26T08:24:16.885Z,98829.66
2022-12-26T08:26:44.697Z,98829.85
2022-12-26T08:29:12.636Z,98822.58
2022-12-26T08:31:40.546Z,98823.48
2022-12-26T08:34:08.557Z,98820.80
2022-12-26T08:36:36.618Z,98828.78
2022-12-26T08:39:04.937Z,98825.25
2022-12-26T08:41:33.179Z,98824.79
2022-12-26T08:44:26.113Z,98830.11
2022-12-26T08:46:48.933Z,98830.92
2022-12-26T08:49:17.231Z,98826.83
2022-12-26T08:51:45.053Z,98821.53
2022-12-26T08:54:12.967Z,98821.02
2022-12-26T08:56:40.957Z,98822.16
2022-12-26T08:59:09.173Z,98824.85
2022-12-26T09:01:37.886Z,98824.27
2022-12-26T09:04:07.388Z,98833.93
2022-12-26T09:06:37.944Z,98843.06
2022-12-26T09:09:08.044Z,98842.86
2022-12-26T09:11:35.911Z,98830.70
2022-12-26T09:14:04.970Z,98823.89
2022-12-26T09:16:49.213Z,98830.44
2022-12-26T09:19:19.373Z,98834.44
2022-12-26T09:21:49.046Z,98840.79
2022-12-26T09:24:18.293Z,98847.62
2022-12-26T09:26:46.972Z,98846.75
2022-12-26T09:29:14.877Z,98857.47
2022-12-26T09:31:43.187Z,98860.70
2022-12-26T09:34:11.113Z,98855.27
2022-12-26T09:36:39.485Z,98846.35
2022-12-26T09:39:07.915Z,98855.04
2022-12-26T09:41:41.774Z,98875.78
2022-12-26T09:44:27.583Z,98872.64
2022-12-26T09:47:21.639Z,98860.85
2022-12-26T09:50:04.596Z,98844.59
2022-12-26T09:52:38.257Z,98824.40
2022-12-26T09:55:44.711Z,98824.63
2022-12-26T09:58:31.264Z,98826.75
2022-12-26T10:01:17.587Z,98820.98
2022-12-26T10:03:52.775Z,98817.06
2022-12-26T10:06:25.775Z,98816.46
2022-12-26T10:08:59.714Z,98812.89
2022-12-26T10:11:53.661Z,98806.92
2022-12-26T10:14:37.688Z,98801.96
2022-12-26T10:17:18.442Z,98801.48
2022-12-26T10:20:11.396Z,98791.64
2022-12-26T10:23:00.431Z,98795.85
2022-12-26T10:25:48.411Z,98801.13
2022-12-26T10:28:23.396Z,98802.92
2022-12-26T10:30:54.986Z,98796.95
2022-12-26T10:33:36.492Z,98801.20
2022-12-26T10:36:04.713Z,98805.96
2022-12-26T10:38:35.226Z,98807.73
2022-12-26T10:41:18.531Z,98811.61
2022-12-26T10:43:46.545Z,98805.27
2022-12-26T10:46:30.213Z,98817.99
2022-12-26T10:48:58.563Z,98814.02
2022-12-26T10:51:27.315Z,98813.63
2022-12-26T10:53:55.168Z,98812.54
2022-12-26T10:56:25.815Z,98813.42
2022-12-26T10:59:04.296Z,98817.98
2022-12-26T11:01:36.400Z,98814.89
2022-12-26T11:04:18.887Z,98810.84
2022-12-26T11:06:52.765Z,98814.63
2022-12-26T11:09:59.729Z,98813.89
2022-12-26T11:12:40.745Z,98806.08
2022-12-26T11:15:34.135Z,98809.02
2022-12-26T11:18:19.788Z,98793.80
2022-12-26T11:20:49.355Z,98796.55
2022-12-26T11:23:17.223Z,98792.09
2022-12-26T11:25:53.362Z,98793.56
2022-12-26T11:28:37.196Z,98792.97
2022-12-26T11:31:07.187Z,98784.67
2022-12-26T11:33:47.619Z,98777.30
2022-12-26T11:36:15.419Z,98763.94
2022-12-26T11:38:45.518Z,98759.55
2022-12-26T11:41:40.256Z,98758.80
2022-12-26T11:44:11.413Z,98762.50
2022-12-26T11:46:48.558Z,98760.96
2022-12-26T11:49:55.150Z,98762.09
2022-12-26T11:52:43.734Z,98769.75
2022-12-26T11:55:24.018Z,98765.27
2022-12-26T11:58:06.053Z,98768.16
2022-12-26T12:00:37.141Z,98772.73
2022-12-26T12:03:12.927Z,98769.34
2022-12-26T12:06:02.845Z,98761.40
2022-12-26T12:08:52.024Z,98757.97
2022-12-26T12:11:28.663Z,98765.05
2022-12-26T12:14:23.929Z,98763.27
2022-12-26T12:17:03.720Z,98765.02
2022-12-26T12:19:47.012Z,98767.16
2022-12-26T12:22:30.170Z,98771.69
2022-12-26T12:25:16.905Z,98779.88
2022-12-26T12:28:09.132Z,98790.91
2022-12-26T12:30:45.794Z,98785.81
2022-12-26T12:33:38.375Z,98783.35
2022-12-26T12:36:09.862Z,98779.45
2022-12-26T12:38:56.852Z,98768.02
2022-12-26T12:41:32.951Z,98772.90
2022-12-26T12:44:45.041Z,98771.36
2022-12-26T12:47:34.137Z,98769.05
2022-12-26T12:50:18.448Z,98768.14
2022-12-26T12:53:18.307Z,98765.96
2022-12-26T12:55:46.122Z,98767.48
2022-12-26T12:58:32.754Z,98765.09
2022-12-26T13:01:13.770Z,98763.88
2022-12-26T13:03:55.533Z,98760.77
2022-12-26T13:06:31.475Z,98768.79
2022-12-26T13:09:08.590Z,98767.70
2022-12-26T13:11:40.793Z,98773.52
2022-12-26T13:14:14.628Z,98778.69
2022-12-26T13:16:52.039Z,98765.91
2022-12-26T13:19:25.332Z,98784.14
2022-12-26T13:21:58.435Z,98792.27
2022-12-26T13:24:39.549Z,98797.93
2022-12-26T13:27:22.386Z,98800.20
2022-12-26T13:29:50.592Z,98800.27
2022-12-26T13:32:30.855Z,98798.83
2022-12-26T13:35:01.462Z,98794.54
2022-12-26T13:37:32.420Z,98791.89
2022-12-26T13:40:03.183Z,98787.11
2022-12-26T13:43:17.656Z,98784.02
2022-12-26T13:45:50.077Z,98778.27
2022-12-26T13:48:18.103Z,98779.90
2022-12-26T13:51:00.442Z,98782.23
2022-12-26T13:53:41.953Z,98779.94
2022-12-26T13:56:19.004Z,98772.59
2022-12-26T13:59:03.308Z,98769.64
2022-12-26T14:02:02.897Z,98775.02
2022-12-26T14:05:16.245Z,98775.70
2022-12-26T14:07:55.191Z,98771.27
2022-12-26T14:11:04.442Z,98760.07
2022-12-26T14:13:59.515Z,98761.44
2022-12-26T14:16:41.199Z,98771.49
2022-12-26T14:19:45.391Z,98762.06
2022-12-26T14:22:35.116Z,98763.78
2022-12-26T14:25:09.879Z,98780.19
2022-12-26T14:27:51.708Z,98786.27
2022-12-26T14:30:21.978Z,98783.36
2022-12-26T14:33:02.037Z,98791.70
2022-12-26T14:35:45.840Z,98797.80
2022-12-26T14:38:48.942Z,98796.55
2022-12-26T14:41:37.805Z,98794.67
2022-12-26T14:44:38.092Z,98794.24
2022-12-26T14:47:06.174Z,98800.86
2022-12-26T14:49:36.033Z,98802.33
2022-12-26T14:52:26.111Z,98803.85
2022-12-26T14:54:55.418Z,98796.48
2022-12-26T14:57:47.599Z,98777.76
2022-12-26T15:00:15.916Z,98766.98
2022-12-26T15:02:52.745Z,98774.77
2022-12-26T15:05:26.036Z,98772.27
2022-12-26T15:08:29.378Z,98779.16
2022-12-26T15:11:09.573Z,98792.05
2022-12-26T15:26:22.991Z,98791.88
2022-12-26T15:29:07.967Z,98789.41
2022-12-26T15:32:09.223Z,98795.36
2022-12-26T15:35:10.023Z,98802.04
2022-12-26T15:37:44.456Z,98810.95
2022-12-26T15:40:21.561Z,98808.92
2022-12-26T15:43:14.082Z,98812.58
2022-12-26T15:45:48.374Z,98824.28
2022-12-26T15:48:23.997Z,98826.61
2022-12-26T15:51:01.922Z,98829.24
2022-12-26T15:53:50.481Z,98833.70
2022-12-26T15:56:35.425Z,98837.20
2022-12-26T15:59:40.838Z,98844.26
2022-12-26T16:02:32.346Z,98856.02
2022-12-26T16:05:11.781Z,98867.45
2022-12-26T16:07:51.197Z,98870.29
2022-12-26T16:10:23.623Z,98873.11
2022-12-26T16:13:22.180Z,98864.58
2022-12-26T16:15:56.877Z,98870.88
2022-12-26T16:18:31.501Z,98876.15
2022-12-26T16:21:19.870Z,98883.16
2022-12-26T16:23:48.961Z,98887.09
2022-12-26T16:26:23.319Z,98891.25
2022-12-26T16:28:50.039Z,98895.80
2022-12-26T16:31:22.941Z,98892.33
2022-12-26T16:33:52.328Z,98891.14
2022-12-26T16:36:28.448Z,98886.96
2022-12-26T16:38:55.753Z,98888.06
2022-12-26T16:41:22.299Z,98888.64
2022-12-26T16:43:50.494Z,98889.35
2022-12-26T16:46:22.625Z,98892.55
2022-12-26T16:48:56.709Z,98898.58
2022-12-26T16:51:54.219Z,98906.22
2022-12-26T16:54:20.709Z,98895.52
2022-12-26T16:57:01.841Z,98897.48
2022-12-26T16:59:37.832Z,98899.09
2022-12-26T17:02:05.470Z,98897.06
2022-12-26T17:04:32.202Z,98894.18
2022-12-26T17:07:15.842Z,98891.12
2022-12-26T17:09:49.106Z,98886.59
2022-12-26T17:12:37.281Z,98897.53
2022-12-26T17:15:05.931Z,98892.13
2022-12-26T17:17:37.501Z,98891.16
2022-12-26T17:20:22.400Z,98890.33
2022-12-26T17:22:53.820Z,98892.37
2022-12-26T17:25:30.616Z,98889.48
2022-12-26T17:28:27.776Z,98894.83
2022-12-26T17:30:54.701Z,98899.31
2022-12-26T17:33:26.840Z,98897.78
2022-12-26T17:39:08.904Z,98896.02
2022-12-26T17:41:35.584Z,98905.02
2022-12-26T17:44:43.199Z,98906.08
2022-12-26T17:47:25.650Z,98914.70
2022-12-26T17:49:53.456Z,98917.84
2022-12-26T17:52:24.295Z,98912.99
2022-12-26T17:54:52.096Z,98909.73
2022-12-26T17:57:27.576Z,98908.41
2022-12-26T17:59:54.851Z,98910.61
2022-12-26T18:02:22.285Z,98917.19
2022-12-26T18:04:49.837Z,98921.16
2022-12-26T18:07:31.004Z,98914.04
2022-12-26T18:10:00.718Z,98918.25
2022-12-26T18:12:27.453Z,98920.87
2022-12-26T18:14:59.450Z,98916.08
2022-12-26T18:17:32.535Z,98911.32
2022-12-26T18:19:59.878Z,98903.92
2022-12-26T18:22:26.570Z,98904.30
2022-12-26T18:24:53.131Z,98910.12
2022-12-26T18:27:24.830Z,98910.58
2022-12-26T18:29:51.343Z,98908.07
2022-12-26T18:32:23.982Z,98905.20
2022-12-26T18:34:51.263Z,98909.16
2022-12-26T18:37:19.234Z,98902.89
2022-12-26T18:39:45.952Z,98898.98
2022-12-26T18:42:14.164Z,98890.71
2022-12-26T18:44:42.126Z,98890.66
2022-12-26T18:47:14.434Z,98890.30
2022-12-26T18:49:41.434Z,98890.48
2022-12-26T18:52:11.387Z,98889.60
2022-12-26T18:54:44.629Z,98884.96
2022-12-26T18:57:18.079Z,98886.66
2022-12-26T18:59:45.713Z,98893.44
2022-12-26T19:02:21.557Z,98889.81
2022-12-26T19:04:48.925Z,98887.77
2022-12-26T19:07:19.479Z,98891.14
2022-12-26T19:09:48.937Z,98881.15
2022-12-26T19:12:16.272Z,98886.46
2022-12-26T19:14:44.600Z,98890.23
2022-12-26T19:17:12.348Z,98893.48
2022-12-26T19:19:38.950Z,98891.30
2022-12-26T19:22:05.635Z,98895.27
2022-12-26T19:24:35.819Z,98900.29
2022-12-26T19:27:03.070Z,98898.74
2022-12-26T19:29:29.809Z,98892.48
2022-12-26T19:31:56.825Z,98888.63
2022-12-26T19:34:23.751Z,98887.67
2022-12-26T19:36:50.490Z,98881.41
2022-12-26T19:39:17.332Z,98880.25
2022-12-26T19:41:43.859Z,98880.13
2022-12-26T19:44:10.733Z,98887.55
2022-12-26T19:46:37.534Z,98885.10
2022-12-26T19:49:04.055Z,98883.54
2022-12-26T19:51:30.544Z,98882.48
2022-12-26T19:53:57.197Z,98884.33
2022-12-26T19:56:26.555Z,98879.15
2022-12-26T19:58:56.675Z,98882.77
2022-12-26T20:01:30.742Z,98889.92
2022-12-26T20:03:59.794Z,98890.61
2022-12-26T20:06:28.177Z,98885.29
2022-12-26T20:08:59.653Z,98884.23
2022-12-26T20:11:32.191Z,98890.41
2022-12-26T20:14:00.908Z,98884.05
2022-12-26T20:19:15.064Z,98879.88
2022-12-26T20:21:41.718Z,98873.36
2022-12-26T20:24:10.145Z,98875.01
2022-12-26T20:26:38.586Z,98874.34
2022-12-26T20:29:08.043Z,98874.76
2022-12-26T20:31:35.270Z,98876.61
2022-12-26T20:34:03.463Z,98870.59
2022-12-26T20:36:35.762Z,98866.96
2022-12-26T20:39:06.289Z,98871.48
2022-12-26T20:41:34.342Z,98872.45
2022-12-26T20:44:03.050Z,98864.75
2022-12-26T20:46:31.830Z,98862.47
2022-12-26T20:49:01.183Z,98860.70
2022-12-26T20:51:36.539Z,98859.42
2022-12-26T20:54:05.184Z,98858.20
2022-12-26T20:56:31.833Z,98864.64
2022-12-26T20:58:58.898Z,98864.79
2022-12-26T21:01:26.263Z,98867.31
2022-12-26T21:03:55.278Z,98856.98
2022-12-26T21:06:29.337Z,98851.77
2022-12-26T21:08:57.134Z,98852.79
2022-12-26T21:11:44.850Z,98863.91
2022-12-26T21:14:14.734Z,98870.48
2022-12-26T21:16:44.671Z,98873.70
2022-12-26T21:19:15.459Z,98876.02
2022-12-26T21:21:45.600Z,98881.15
2022-12-26T21:24:16.007Z,98886.67
2022-12-26T21:26:44.007Z,98881.48
2022-12-26T21:29:16.891Z,98875.31
2022-12-26T21:31:44.245Z,98870.69
2022-12-26T21:34:14.219Z,98866.44
2022-12-26T21:37:02.687Z,98870.23
2022-12-26T21:39:30.381Z,98880.20
2022-12-26T21:41:57.063Z,98882.95
2022-12-26T21:44:23.724Z,98877.94
2022-12-26T21:46:50.208Z,98877.67
2022-12-26T21:49:16.826Z,98876.15
2022-12-26T21:51:43.390Z,98880.31
2022-12-26T21:54:28.570Z,98883.52
2022-12-26T21:56:55.167Z,98882.21
2022-12-26T21:59:40.445Z,98886.39
2022-12-26T22:02:31.355Z,98890.60
2022-12-26T22:04:59.129Z,98897.29
2022-12-26T22:07:26.246Z,98897.61
2022-12-26T22:09:52.852Z,98894.70
2022-12-26T22:12:38.431Z,98901.21
2022-12-26T22:15:25.929Z,98899.15
2022-12-26T22:17:52.558Z,98908.19
2022-12-26T22:20:19.128Z,98908.95
2022-12-26T22:22:45.582Z,98913.04
2022-12-26T22:25:12.079Z,98915.58
2022-12-26T22:27:38.547Z,98926.60
2022-12-26T22:30:05.419Z,98933.77
2022-12-26T22:32:32.047Z,98940.66
2022-12-26T22:34:58.506Z,98948.84
2022-12-26T22:37:25.001Z,98959.36
2022-12-26T22:39:51.606Z,98958.56
2022-12-26T22:42:18.069Z,98959.05
2022-12-26T22:44:44.560Z,98970.51
2022-12-26T22:47:11.012Z,98975.89
2022-12-26T22:49:37.528Z,98982.39
2022-12-26T22:52:04.212Z,98991.72
2022-12-26T22:54:30.733Z,98990.12
2022-12-26T22:56:57.289Z,99008.20
2022-12-26T22:59:57.831Z,99006.54
2022-12-26T23:02:10.418Z,98984.88
2022-12-26T23:04:37.642Z,98959.02
2022-12-26T23:07:04.529Z,98952.76
2022-12-26T23:09:31.187Z,98945.55
2022-12-26T23:12:16.829Z,98936.98
2022-12-26T23:14:44.164Z,98947.88
2022-12-26T23:17:35.407Z,98958.02
2022-12-26T23:20:22.658Z,98962.50
2022-12-26T23:22:49.628Z,98969.02
2022-12-26T23:25:16.330Z,98976.33
2022-12-26T23:28:01.558Z,98990.50
2022-12-26T23:30:30.709Z,98994.28
2022-12-26T23:32:58.357Z,98992.96
2022-12-26T23:35:26.189Z,98987.67
2022-12-26T23:37:53.602Z,98978.29
2022-12-26T23:40:21.447Z,98984.30
2022-12-26T23:42:48.178Z,98985.79
2022-12-26T23:45:14.706Z,98986.16
2022-12-26T23:47:42.714Z,98993.16
2022-12-26T23:50:11.137Z,99013.45
2022-12-26T23:52:38.074Z,99011.23
2022-12-26T23:55:05.099Z,99020.33
2022-12-26T23:57:31.768Z,99023.95
2022-12-26T23:59:58.435Z,99022.11
